Flight Track Log - Related Links

Times and Time Zones

All times are in EDT time to prevent confusion due to time zone crossing. See the N26141 flight status page for this flight to view local times or setup timezone preferences in your user account.

Time Position Orientation Groundspeed Altitude Reporting Facility
EDT Latitude Longitude Course Direction KTS MPH feet Rate Location/Type
Wed 01:40:03 PM 42.0000 -87.9500 13° North 173 199 2,400  Level Chicago TRACON
Wed 01:41:03 PM 42.0333 -88.0167 304° West 194 223 5,600 2,600 Climbing Chicago TRACON
Wed 01:42:00 PM 42.2444 -87.8097 10° North  Level FlightAware Approximate
Wed 01:42:03 PM 42.0833 -88.0333 346° North 248 285 7,600  Level Chicago TRACON
Wed 01:42:57 PM 42.1500 -88.0333 360° North 261 300 9,900 1,950 Climbing Chicago TRACON
Wed 01:43:00 PM 42.3386 -87.7862 10° North  Level FlightAware Approximate
Wed 01:43:23 PM 42.1658 -88.0394 344° North 254 292 10,200  Level Chicago Center
Wed 01:44:00 PM 42.4317 -87.7561 14° North  Level FlightAware Approximate
Wed 01:44:25 PM 42.2714 -88.0342 North 313 360 11,700  Level Chicago Center
Wed 01:45:00 PM 42.5248 -87.7255 13° North  Level FlightAware Approximate
Wed 01:45:27 PM 42.3594 -88.0322 North 340 391 12,000  Level Chicago Center
Wed 01:46:29 PM 42.4778 -88.0292 North 360 414 12,000  Level Chicago Center
Wed 01:47:31 PM 42.5781 -88.0250 North 360 414 12,000  Level Chicago Center
Wed 01:48:33 PM 42.6761 -88.0019 10° North 364 419 12,000  Level Chicago Center
Wed 01:49:35 PM 42.7706 -87.9533 21° North 366 421 12,000 387 Level Chicago Center
Wed 01:50:37 PM 42.8478 -87.8714 38° Northeast 365 420 12,800 1,355 Climbing Chicago Center
Wed 01:51:39 PM 42.8714 -87.7017 79° East 391 450 14,800 1,790 Climbing Chicago Center
Wed 01:52:41 PM 42.8928 -87.5572 79° East 391 450 16,500 1,561 Climbing Chicago Center
Wed 01:53:42 PM 42.9147 -87.4106 78° East 395 455 18,000 1,220 Climbing Chicago Center
Wed 01:54:44 PM 42.9392 -87.2672 77° East 401 461 19,000 774 Climbing Chicago Center
Wed 01:55:46 PM 42.9639 -87.1086 78° East 419 482 19,600 581 Climbing Chicago Center
Wed 01:56:48 PM 42.9908 -86.9433 77° East 442 509 20,200 968 Climbing Chicago Center
Wed 01:57:50 PM 43.0225 -86.7394 78° East 456 525 21,600 1,161 Climbing Chicago Center
Wed 01:58:52 PM 43.0494 -86.5717 78° East 454 522 22,600 677 Climbing Chicago Center
Wed 01:59:54 PM 43.0758 -86.3997 78° East 460 529 23,000 194 Climbing Chicago Center
Wed 02:00:56 PM 43.1019 -86.2236 78° East 468 539 23,000  Level Chicago Center
Wed 02:01:58 PM 43.1283 -86.0456 78° East 468 539 23,000  Level Chicago Center
Wed 02:02:59 PM 43.1547 -85.8667 79° East 464 534 23,000  Level Chicago Center
Wed 02:04:01 PM 43.1808 -85.6919 78° East 465 535 23,000  Level Chicago Center
Wed 02:05:03 PM 43.2061 -85.5172 79° East 466 536 23,000  Level Chicago Center
Wed 02:06:05 PM 43.2314 -85.3394 79° East 471 542 23,000  Level Chicago Center
Wed 02:06:26 PM 43.2406 -85.2661 80° East 485 558 23,000  Level Cleveland Center
Wed 02:07:26 PM 43.2225 -85.0908 98° East 460 529 23,000  Level Cleveland Center
Wed 02:08:26 PM 43.1914 -84.9261 104° East 453 521 23,000  Level Cleveland Center
Wed 02:09:26 PM 43.1556 -84.7672 107° East 448 516 23,000 -170 Level Cleveland Center
Wed 02:10:12 PM 43.1208 -84.6492 112° Southeast 433 498 22,700 -667 Descending Chicago Center
Wed 02:11:14 PM 43.0742 -84.4964 113° Southeast 437 503 21,800 -1,113 Descending Chicago Center
Wed 02:12:16 PM 43.0300 -84.3517 113° Southeast 419 482 20,400 -1,742 Descending Chicago Center
Wed 02:13:18 PM 42.9861 -84.2061 112° Southeast 416 479 18,200 -2,460 Descending Chicago Center
Wed 02:13:56 PM 42.9506 -84.0961 114° Southeast 396 456 16,300 -2,793 Descending FAA TRACON SMA TRACON (SMA)
Wed 02:14:16 PM 42.9378 -84.0542 113° Southeast 392 451 15,500 -2,700 Descending FAA TRACON SMA TRACON (SMA)
Wed 02:14:36 PM 42.9217 -84.0028 113° Southeast 385 443 14,500 -2,488 Descending FAA TRACON SMA TRACON (SMA)
Wed 02:14:57 PM 42.9089 -83.9625 113° Southeast 380 437 13,800 -2,195 Descending FAA TRACON SMA TRACON (SMA)
Wed 02:15:17 PM 42.8958 -83.9231 114° Southeast 375 432 13,000 -1,846 Descending FAA TRACON SMA TRACON (SMA)
Wed 02:15:36 PM 42.8806 -83.8725 112° Southeast 375 432 12,600 -1,231 Descending FAA TRACON SMA TRACON (SMA)
Wed 02:15:56 PM 42.8681 -83.8319 113° Southeast 376 433 12,200 -750 Descending FAA TRACON SMA TRACON (SMA)
Wed 02:16:16 PM 42.8556 -83.7925 113° Southeast 371 427 12,100 -300 Descending FAA TRACON SMA TRACON (SMA)
Wed 02:16:36 PM 42.8372 -83.7531 122° Southeast 321 369 12,000 -146 Descending FAA TRACON SMA TRACON (SMA)
Wed 02:16:57 PM 42.8189 -83.7303 138° Southeast 288 331 12,000 146 Level FAA TRACON SMA TRACON (SMA)
Wed 02:17:17 PM 42.7986 -83.7122 147° Southeast 282 325 12,100 150 Climbing FAA TRACON SMA TRACON (SMA)
Wed 02:17:37 PM 42.7717 -83.6967 157° South 275 316 12,100  Level FAA TRACON SMA TRACON (SMA)
Wed 02:17:56 PM 42.7497 -83.6831 156° South 278 320 12,100 -154 Level FAA TRACON SMA TRACON (SMA)
Wed 02:18:16 PM 42.7278 -83.6700 156° South 280 322 12,000 -150 Descending FAA TRACON SMA TRACON (SMA)
Wed 02:18:36 PM 42.7003 -83.6539 157° South 280 322 12,000  Level FAA TRACON SMA TRACON (SMA)
Wed 02:18:56 PM 42.6783 -83.6406 156° South 280 322 12,000  Level FAA TRACON SMA TRACON (SMA)
Wed 02:19:16 PM 42.6564 -83.6281 157° South 278 320 12,000  Level FAA TRACON SMA TRACON (SMA)
Wed 02:19:45 PM 42.6183 -83.6081 159° South 275 316 12,000 -343 Level Cleveland Center
Wed 02:20:26 PM 42.5775 -83.5833 156° South 278 320 11,600 -885 Descending Cleveland Center
Wed 02:20:46 PM 42.5489 -83.5622 151° Southeast 279 321 11,100 -600 Descending Cleveland Center
Wed 02:21:26 PM 42.5078 -83.5406 159° South 278 320 11,000 -98 Descending Cleveland Center
Wed 02:21:47 PM 42.4769 -83.5222 156° South 264 304 11,000  Level Cleveland Center
Wed 02:22:26 PM 42.4419 -83.5039 159° South 272 313 11,000 98 Level Cleveland Center
Wed 02:22:48 PM 42.4172 -83.4886 155° Southeast 224 258 11,100  Climbing Cleveland Center
Wed 02:23:36 PM 42.3728 -83.4633 157° South 215 247 11,000 -87 Descending FAA TRACON SMA TRACON (SMA)
Wed 02:23:57 PM 42.3500 -83.4617 177° South 208 239 11,000  Level FAA TRACON SMA TRACON (SMA)
Wed 02:24:17 PM 42.3317 -83.4597 176° South 215 247 11,000 -150 Level FAA TRACON SMA TRACON (SMA)
Wed 02:24:37 PM 42.3133 -83.4586 177° South 214 246 10,900 -837 Descending FAA TRACON SMA TRACON (SMA)
Wed 02:25:00 PM 42.2903 -83.4575 178° South 214 246 10,400 -1,286 Descending FAA TRACON SMA TRACON (SMA)
Wed 02:25:19 PM 42.2717 -83.4569 179° South 216 249 10,000 -1,459 Descending FAA TRACON SMA TRACON (SMA)
Wed 02:25:37 PM 42.2533 -83.4572 181° South 215 247 9,500 -1,622 Descending FAA TRACON SMA TRACON (SMA)
Wed 02:25:56 PM 42.2375 -83.4694 210° Southwest 211 243 9,000 -1,538 Descending FAA TRACON SMA TRACON (SMA)
Wed 02:26:16 PM 42.2181 -83.4850 211° Southwest 215 247 8,500 -1,200 Descending FAA TRACON SMA TRACON (SMA)
Wed 02:26:36 PM 42.2025 -83.4989 213° Southwest 220 253 8,200 -600 Descending FAA TRACON SMA TRACON (SMA)
Wed 02:26:56 PM 42.1867 -83.5128 213° Southwest 221 254 8,100 -293 Descending FAA TRACON SMA TRACON (SMA)
Wed 02:27:17 PM 42.1667 -83.5306 213° Southwest 222 255 8,000 -146 Descending FAA TRACON SMA TRACON (SMA)
Wed 02:27:37 PM 42.1506 -83.5450 214° Southwest 225 259 8,000 154 Level FAA TRACON SMA TRACON (SMA)
Wed 02:27:56 PM 42.1344 -83.5592 213° Southwest 223 257 8,100  Climbing FAA TRACON SMA TRACON (SMA)
Wed 02:28:16 PM 42.1144 -83.5767 213° Southwest 224 258 8,000 -150 Descending FAA TRACON SMA TRACON (SMA)
Wed 02:28:36 PM 42.0981 -83.5908 213° Southwest 224 258 8,000 150 Level FAA TRACON SMA TRACON (SMA)
Wed 02:28:56 PM 42.0822 -83.6047 213° Southwest 224 258 8,100 150 Climbing FAA TRACON SMA TRACON (SMA)
Wed 02:29:16 PM 42.0619 -83.6225 213° Southwest 224 258 8,100 -100 Level FAA TRACON SMA TRACON (SMA)
Wed 02:29:56 PM 42.0253 -83.6539 212° Southwest 225 259 8,000 -98 Descending FAA TRACON SMA TRACON (SMA)
Wed 02:30:17 PM 42.0092 -83.6681 213° Southwest 225 259 8,000  Level FAA TRACON SMA TRACON (SMA)
Wed 02:30:37 PM 41.9928 -83.6819 212° Southwest 226 260 8,000 150 Level FAA TRACON SMA TRACON (SMA)
Wed 02:30:57 PM 41.9725 -83.6994 213° Southwest 225 259 8,100  Climbing FAA TRACON SMA TRACON (SMA)
Wed 02:31:16 PM 41.9564 -83.7136 213° Southwest 225 259 8,000 -154 Descending FAA TRACON SMA TRACON (SMA)
Wed 02:31:36 PM 41.9386 -83.7239 203° Southwest 226 260 8,000 150 Level FAA TRACON SMA TRACON (SMA)
Wed 02:31:56 PM 41.9169 -83.7108 156° South 237 273 8,100 -300 Climbing FAA TRACON SMA TRACON (SMA)
Wed 02:32:16 PM 41.9033 -83.6908 132° Southeast 234 269 7,800 -900 Descending FAA TRACON SMA TRACON (SMA)
Wed 02:32:36 PM 41.8908 -83.6717 131° Southeast 230 265 7,500 -900 Descending FAA TRACON SMA TRACON (SMA)

Login

Don't have an account? Register now (free) for customized features, flight alerts, and more!